sensor_id;sensor_type;location;lat;lon;timestamp;pressure;altitude;pressure_sealevel;temperature
7389;BMP180;3735;50.136;11.062;2023-04-03T00:00:50;99077.00;;;2.30
7389;BMP180;3735;50.136;11.062;2023-04-03T00:03:18;99084.00;;;2.30
7389;BMP180;3735;50.136;11.062;2023-04-03T00:05:45;99089.00;;;2.40
7389;BMP180;3735;50.136;11.062;2023-04-03T00:08:10;99083.00;;;2.40
7389;BMP180;3735;50.136;11.062;2023-04-03T00:10:37;99076.00;;;2.30
7389;BMP180;3735;50.136;11.062;2023-04-03T00:13:05;99066.00;;;2.30
7389;BMP180;3735;50.136;11.062;2023-04-03T00:15:31;99089.00;;;2.40
7389;BMP180;3735;50.136;11.062;2023-04-03T00:17:57;99085.00;;;2.40
7389;BMP180;3735;50.136;11.062;2023-04-03T00:20:23;99090.00;;;2.50
7389;BMP180;3735;50.136;11.062;2023-04-03T00:22:49;99020.00;;;2.50
7389;BMP180;3735;50.136;11.062;2023-04-03T00:25:15;99084.00;;;2.50
7389;BMP180;3735;50.136;11.062;2023-04-03T00:27:41;99083.00;;;2.50
7389;BMP180;3735;50.136;11.062;2023-04-03T00:30:11;99081.00;;;2.50
7389;BMP180;3735;50.136;11.062;2023-04-03T00:32:38;99087.00;;;2.50
7389;BMP180;3735;50.136;11.062;2023-04-03T00:35:05;99090.00;;;2.50
7389;BMP180;3735;50.136;11.062;2023-04-03T00:37:31;99057.00;;;2.60
7389;BMP180;3735;50.136;11.062;2023-04-03T00:39:57;99084.00;;;2.60
7389;BMP180;3735;50.136;11.062;2023-04-03T00:42:23;99091.00;;;2.60
7389;BMP180;3735;50.136;11.062;2023-04-03T00:47:17;99091.00;;;2.70
7389;BMP180;3735;50.136;11.062;2023-04-03T00:49:44;99092.00;;;2.70
7389;BMP180;3735;50.136;11.062;2023-04-03T00:52:16;99086.00;;;2.70
7389;BMP180;3735;50.136;11.062;2023-04-03T00:54:45;99091.00;;;2.70
7389;BMP180;3735;50.136;11.062;2023-04-03T00:57:13;99100.00;;;2.70
7389;BMP180;3735;50.136;11.062;2023-04-03T00:59:47;99085.00;;;2.70
7389;BMP180;3735;50.136;11.062;2023-04-03T01:02:15;99088.00;;;2.70
7389;BMP180;3735;50.136;11.062;2023-04-03T01:04:43;99086.00;;;2.70
7389;BMP180;3735;50.136;11.062;2023-04-03T01:07:30;99088.00;;;2.70
7389;BMP180;3735;50.136;11.062;2023-04-03T01:10:05;99083.00;;;2.70
7389;BMP180;3735;50.136;11.062;2023-04-03T01:12:36;99091.00;;;2.70
7389;BMP180;3735;50.136;11.062;2023-04-03T01:15:17;99089.00;;;2.70
7389;BMP180;3735;50.136;11.062;2023-04-03T01:17:50;99094.00;;;2.70
7389;BMP180;3735;50.136;11.062;2023-04-03T01:25:56;99091.00;;;2.60
7389;BMP180;3735;50.136;11.062;2023-04-03T01:28:30;99071.00;;;2.60
7389;BMP180;3735;50.136;11.062;2023-04-03T01:34:10;99087.00;;;2.60
7389;BMP180;3735;50.136;11.062;2023-04-03T01:36:36;99094.00;;;2.60
7389;BMP180;3735;50.136;11.062;2023-04-03T01:39:02;99090.00;;;2.60
7389;BMP180;3735;50.136;11.062;2023-04-03T01:41:28;99104.00;;;2.60
7389;BMP180;3735;50.136;11.062;2023-04-03T01:43:54;99096.00;;;2.70
7389;BMP180;3735;50.136;11.062;2023-04-03T01:46:21;99100.00;;;2.70
7389;BMP180;3735;50.136;11.062;2023-04-03T01:48:48;99108.00;;;2.70
7389;BMP180;3735;50.136;11.062;2023-04-03T01:51:14;99098.00;;;2.80
7389;BMP180;3735;50.136;11.062;2023-04-03T01:53:40;99106.00;;;2.80
7389;BMP180;3735;50.136;11.062;2023-04-03T01:56:07;99092.00;;;2.80
7389;BMP180;3735;50.136;11.062;2023-04-03T01:58:33;99101.00;;;2.80
7389;BMP180;3735;50.136;11.062;2023-04-03T02:00:59;99099.00;;;2.90
7389;BMP180;3735;50.136;11.062;2023-04-03T02:03:24;99101.00;;;2.80
7389;BMP180;3735;50.136;11.062;2023-04-03T02:05:50;99105.00;;;2.90
7389;BMP180;3735;50.136;11.062;2023-04-03T02:08:16;99094.00;;;2.90
7389;BMP180;3735;50.136;11.062;2023-04-03T02:10:50;99103.00;;;2.90
7389;BMP180;3735;50.136;11.062;2023-04-03T02:13:17;99103.00;;;2.90
7389;BMP180;3735;50.136;11.062;2023-04-03T02:15:43;99092.00;;;2.80
7389;BMP180;3735;50.136;11.062;2023-04-03T02:18:09;99104.00;;;2.80
7389;BMP180;3735;50.136;11.062;2023-04-03T02:20:35;99102.00;;;2.80
7389;BMP180;3735;50.136;11.062;2023-04-03T02:23:02;99112.00;;;2.80
7389;BMP180;3735;50.136;11.062;2023-04-03T02:25:30;99105.00;;;2.80
7389;BMP180;3735;50.136;11.062;2023-04-03T02:27:56;99104.00;;;2.80
7389;BMP180;3735;50.136;11.062;2023-04-03T02:30:22;99109.00;;;2.70
7389;BMP180;3735;50.136;11.062;2023-04-03T02:32:48;99107.00;;;2.70
7389;BMP180;3735;50.136;11.062;2023-04-03T02:35:13;99104.00;;;2.70
7389;BMP180;3735;50.136;11.062;2023-04-03T02:37:39;99112.00;;;2.70
7389;BMP180;3735;50.136;11.062;2023-04-03T02:40:07;99117.00;;;2.70
7389;BMP180;3735;50.136;11.062;2023-04-03T02:42:33;99111.00;;;2.60
7389;BMP180;3735;50.136;11.062;2023-04-03T02:44:58;99091.00;;;2.60
7389;BMP180;3735;50.136;11.062;2023-04-03T02:47:27;99116.00;;;2.60
7389;BMP180;3735;50.136;11.062;2023-04-03T02:49:53;99113.00;;;2.60
7389;BMP180;3735;50.136;11.062;2023-04-03T02:52:19;99114.00;;;2.60
7389;BMP180;3735;50.136;11.062;2023-04-03T02:54:45;99115.00;;;2.70
7389;BMP180;3735;50.136;11.062;2023-04-03T02:57:11;99124.00;;;2.80
7389;BMP180;3735;50.136;11.062;2023-04-03T02:59:37;99118.00;;;2.80
7389;BMP180;3735;50.136;11.062;2023-04-03T03:02:07;99107.00;;;2.60
7389;BMP180;3735;50.136;11.062;2023-04-03T03:04:34;99102.00;;;2.70
7389;BMP180;3735;50.136;11.062;2023-04-03T03:07:00;99117.00;;;2.70
7389;BMP180;3735;50.136;11.062;2023-04-03T03:09:26;99125.00;;;2.70
7389;BMP180;3735;50.136;11.062;2023-04-03T03:11:52;99115.00;;;2.60
7389;BMP180;3735;50.136;11.062;2023-04-03T03:14:18;99122.00;;;2.60
7389;BMP180;3735;50.136;11.062;2023-04-03T03:16:44;99131.00;;;2.40
7389;BMP180;3735;50.136;11.062;2023-04-03T03:19:10;99125.00;;;2.30
7389;BMP180;3735;50.136;11.062;2023-04-03T03:21:36;99136.00;;;2.20
7389;BMP180;3735;50.136;11.062;2023-04-03T03:24:02;99134.00;;;2.20
7389;BMP180;3735;50.136;11.062;2023-04-03T03:26:28;99136.00;;;2.10
7389;BMP180;3735;50.136;11.062;2023-04-03T03:28:54;99138.00;;;2.00
7389;BMP180;3735;50.136;11.062;2023-04-03T03:31:19;99133.00;;;2.00
7389;BMP180;3735;50.136;11.062;2023-04-03T03:33:46;99138.00;;;2.00
7389;BMP180;3735;50.136;11.062;2023-04-03T03:36:11;99142.00;;;2.00
7389;BMP180;3735;50.136;11.062;2023-04-03T03:38:38;99136.00;;;2.00
7389;BMP180;3735;50.136;11.062;2023-04-03T03:41:03;99141.00;;;1.90
7389;BMP180;3735;50.136;11.062;2023-04-03T03:43:29;99143.00;;;1.90
7389;BMP180;3735;50.136;11.062;2023-04-03T03:45:55;99141.00;;;2.00
7389;BMP180;3735;50.136;11.062;2023-04-03T03:48:22;99147.00;;;2.10
7389;BMP180;3735;50.136;11.062;2023-04-03T03:50:49;99132.00;;;2.00
7389;BMP180;3735;50.136;11.062;2023-04-03T03:53:15;99144.00;;;2.00
7389;BMP180;3735;50.136;11.062;2023-04-03T03:55:42;99145.00;;;2.10
7389;BMP180;3735;50.136;11.062;2023-04-03T03:58:08;99143.00;;;2.10
7389;BMP180;3735;50.136;11.062;2023-04-03T04:00:34;99136.00;;;2.00
7389;BMP180;3735;50.136;11.062;2023-04-03T04:03:00;99147.00;;;2.00
7389;BMP180;3735;50.136;11.062;2023-04-03T04:05:26;99140.00;;;2.10
7389;BMP180;3735;50.136;11.062;2023-04-03T04:07:52;99144.00;;;2.10
7389;BMP180;3735;50.136;11.062;2023-04-03T04:10:18;99137.00;;;2.10
7389;BMP180;3735;50.136;11.062;2023-04-03T04:12:43;99144.00;;;2.10
7389;BMP180;3735;50.136;11.062;2023-04-03T04:15:10;99141.00;;;1.90
7389;BMP180;3735;50.136;11.062;2023-04-03T04:17:36;99147.00;;;1.90
7389;BMP180;3735;50.136;11.062;2023-04-03T04:20:03;99137.00;;;1.90
7389;BMP180;3735;50.136;11.062;2023-04-03T04:22:30;99145.00;;;1.70
7389;BMP180;3735;50.136;11.062;2023-04-03T04:24:56;99142.00;;;1.70
7389;BMP180;3735;50.136;11.062;2023-04-03T04:27:23;99135.00;;;1.70
7389;BMP180;3735;50.136;11.062;2023-04-03T04:29:49;99145.00;;;1.70
7389;BMP180;3735;50.136;11.062;2023-04-03T04:32:14;99140.00;;;1.80
7389;BMP180;3735;50.136;11.062;2023-04-03T04:34:40;99148.00;;;1.90
7389;BMP180;3735;50.136;11.062;2023-04-03T04:37:06;99137.00;;;1.80
7389;BMP180;3735;50.136;11.062;2023-04-03T04:39:31;99146.00;;;1.80
7389;BMP180;3735;50.136;11.062;2023-04-03T04:41:57;99149.00;;;1.80
7389;BMP180;3735;50.136;11.062;2023-04-03T04:44:23;99145.00;;;1.80
7389;BMP180;3735;50.136;11.062;2023-04-03T04:46:49;99149.00;;;1.80
7389;BMP180;3735;50.136;11.062;2023-04-03T04:49:14;99161.00;;;1.70
7389;BMP180;3735;50.136;11.062;2023-04-03T04:51:40;99151.00;;;1.70
7389;BMP180;3735;50.136;11.062;2023-04-03T04:54:06;99153.00;;;1.60
7389;BMP180;3735;50.136;11.062;2023-04-03T04:56:32;99163.00;;;1.60
7389;BMP180;3735;50.136;11.062;2023-04-03T04:58:57;99159.00;;;1.60
7389;BMP180;3735;50.136;11.062;2023-04-03T05:01:23;99144.00;;;1.50
7389;BMP180;3735;50.136;11.062;2023-04-03T05:03:49;99163.00;;;1.50
7389;BMP180;3735;50.136;11.062;2023-04-03T05:06:15;99173.00;;;1.50
7389;BMP180;3735;50.136;11.062;2023-04-03T05:08:40;99177.00;;;1.40
7389;BMP180;3735;50.136;11.062;2023-04-03T05:11:06;99172.00;;;1.50
7389;BMP180;3735;50.136;11.062;2023-04-03T05:13:32;99175.00;;;1.40
7389;BMP180;3735;50.136;11.062;2023-04-03T05:15:58;99171.00;;;1.40
7389;BMP180;3735;50.136;11.062;2023-04-03T05:18:24;99183.00;;;1.40
7389;BMP180;3735;50.136;11.062;2023-04-03T05:20:50;99174.00;;;1.50
7389;BMP180;3735;50.136;11.062;2023-04-03T05:23:17;99185.00;;;1.60
7389;BMP180;3735;50.136;11.062;2023-04-03T05:25:43;99177.00;;;1.60
7389;BMP180;3735;50.136;11.062;2023-04-03T05:28:11;99187.00;;;1.70
7389;BMP180;3735;50.136;11.062;2023-04-03T05:30:36;99191.00;;;1.80
7389;BMP180;3735;50.136;11.062;2023-04-03T05:33:02;99183.00;;;1.90
7389;BMP180;3735;50.136;11.062;2023-04-03T05:35:28;99192.00;;;1.90
7389;BMP180;3735;50.136;11.062;2023-04-03T05:37:54;99198.00;;;2.00
7389;BMP180;3735;50.136;11.062;2023-04-03T05:40:20;99194.00;;;2.20
7389;BMP180;3735;50.136;11.062;2023-04-03T05:42:46;99196.00;;;2.10
7389;BMP180;3735;50.136;11.062;2023-04-03T05:45:12;99191.00;;;2.00
7389;BMP180;3735;50.136;11.062;2023-04-03T05:47:38;99190.00;;;2.10
7389;BMP180;3735;50.136;11.062;2023-04-03T05:50:04;99192.00;;;2.30
7389;BMP180;3735;50.136;11.062;2023-04-03T05:52:36;99190.00;;;2.30
7389;BMP180;3735;50.136;11.062;2023-04-03T05:55:04;99200.00;;;2.50
7389;BMP180;3735;50.136;11.062;2023-04-03T05:57:30;99192.00;;;2.50
7389;BMP180;3735;50.136;11.062;2023-04-03T05:59:55;99195.00;;;2.40
7389;BMP180;3735;50.136;11.062;2023-04-03T06:02:23;99203.00;;;2.80
7389;BMP180;3735;50.136;11.062;2023-04-03T06:04:49;99196.00;;;2.90
7389;BMP180;3735;50.136;11.062;2023-04-03T06:07:19;99203.00;;;2.90
7389;BMP180;3735;50.136;11.062;2023-04-03T06:09:47;99201.00;;;3.20
7389;BMP180;3735;50.136;11.062;2023-04-03T06:12:13;99210.00;;;3.40
7389;BMP180;3735;50.136;11.062;2023-04-03T06:14:39;99210.00;;;3.60
7389;BMP180;3735;50.136;11.062;2023-04-03T06:17:05;99198.00;;;3.80
7389;BMP180;3735;50.136;11.062;2023-04-03T06:19:31;99201.00;;;3.80
7389;BMP180;3735;50.136;11.062;2023-04-03T06:21:57;99205.00;;;3.70
7389;BMP180;3735;50.136;11.062;2023-04-03T06:24:23;99213.00;;;3.70
7389;BMP180;3735;50.136;11.062;2023-04-03T06:26:51;99201.00;;;3.70
7389;BMP180;3735;50.136;11.062;2023-04-03T06:29:19;99216.00;;;3.50
7389;BMP180;3735;50.136;11.062;2023-04-03T06:31:46;99218.00;;;3.70
7389;BMP180;3735;50.136;11.062;2023-04-03T06:34:12;99222.00;;;3.60
7389;BMP180;3735;50.136;11.062;2023-04-03T06:36:39;99224.00;;;3.50
7389;BMP180;3735;50.136;11.062;2023-04-03T06:39:05;99221.00;;;3.50
7389;BMP180;3735;50.136;11.062;2023-04-03T06:41:33;99236.00;;;3.60
7389;BMP180;3735;50.136;11.062;2023-04-03T06:43:59;99223.00;;;3.50
7389;BMP180;3735;50.136;11.062;2023-04-03T06:46:26;99235.00;;;3.40
7389;BMP180;3735;50.136;11.062;2023-04-03T06:48:52;99235.00;;;3.30
7389;BMP180;3735;50.136;11.062;2023-04-03T06:51:23;99239.00;;;3.30
7389;BMP180;3735;50.136;11.062;2023-04-03T06:53:51;99244.00;;;3.20
7389;BMP180;3735;50.136;11.062;2023-04-03T06:56:18;99247.00;;;3.10
7389;BMP180;3735;50.136;11.062;2023-04-03T06:58:45;99248.00;;;3.00
7389;BMP180;3735;50.136;11.062;2023-04-03T07:01:15;99255.00;;;3.10
7389;BMP180;3735;50.136;11.062;2023-04-03T07:03:42;99239.00;;;3.30
7389;BMP180;3735;50.136;11.062;2023-04-03T07:06:12;99251.00;;;3.50
7389;BMP180;3735;50.136;11.062;2023-04-03T07:08:38;99267.00;;;3.60
7389;BMP180;3735;50.136;11.062;2023-04-03T07:11:05;99259.00;;;3.60
7389;BMP180;3735;50.136;11.062;2023-04-03T07:13:31;99267.00;;;3.80
7389;BMP180;3735;50.136;11.062;2023-04-03T07:15:58;99279.00;;;3.90
7389;BMP180;3735;50.136;11.062;2023-04-03T07:18:25;99272.00;;;3.80
7389;BMP180;3735;50.136;11.062;2023-04-03T07:20:51;99273.00;;;3.90
7389;BMP180;3735;50.136;11.062;2023-04-03T07:23:17;99268.00;;;4.00
7389;BMP180;3735;50.136;11.062;2023-04-03T07:25:48;99270.00;;;4.30
7389;BMP180;3735;50.136;11.062;2023-04-03T07:28:15;99276.00;;;4.50
7389;BMP180;3735;50.136;11.062;2023-04-03T07:31:01;99278.00;;;4.50
7389;BMP180;3735;50.136;11.062;2023-04-03T07:33:28;99261.00;;;4.40
7389;BMP180;3735;50.136;11.062;2023-04-03T07:35:54;99278.00;;;4.70
7389;BMP180;3735;50.136;11.062;2023-04-03T07:38:21;99272.00;;;4.60
7389;BMP180;3735;50.136;11.062;2023-04-03T07:40:49;99279.00;;;4.60
7389;BMP180;3735;50.136;11.062;2023-04-03T07:43:17;99279.00;;;5.40
7389;BMP180;3735;50.136;11.062;2023-04-03T07:45:43;99274.00;;;5.30
7389;BMP180;3735;50.136;11.062;2023-04-03T07:48:11;99280.00;;;5.20
7389;BMP180;3735;50.136;11.062;2023-04-03T07:50:37;99277.00;;;6.30
7389;BMP180;3735;50.136;11.062;2023-04-03T07:53:05;99272.00;;;6.80
7389;BMP180;3735;50.136;11.062;2023-04-03T07:55:32;99254.00;;;6.70
7389;BMP180;3735;50.136;11.062;2023-04-03T07:57:57;99268.00;;;7.10
7389;BMP180;3735;50.136;11.062;2023-04-03T08:00:23;99263.00;;;8.20
7389;BMP180;3735;50.136;11.062;2023-04-03T08:02:50;99268.00;;;7.30
7389;BMP180;3735;50.136;11.062;2023-04-03T08:05:21;99286.00;;;6.40
7389;BMP180;3735;50.136;11.062;2023-04-03T08:07:47;99276.00;;;6.00
7389;BMP180;3735;50.136;11.062;2023-04-03T08:10:14;99293.00;;;5.90
7389;BMP180;3735;50.136;11.062;2023-04-03T08:12:41;99287.00;;;5.50
7389;BMP180;3735;50.136;11.062;2023-04-03T08:15:08;99287.00;;;5.20
7389;BMP180;3735;50.136;11.062;2023-04-03T08:17:35;99296.00;;;5.30
7389;BMP180;3735;50.136;11.062;2023-04-03T08:20:03;99295.00;;;5.50
7389;BMP180;3735;50.136;11.062;2023-04-03T08:22:29;99289.00;;;5.60
7389;BMP180;3735;50.136;11.062;2023-04-03T08:24:56;99286.00;;;5.60
7389;BMP180;3735;50.136;11.062;2023-04-03T08:27:21;99292.00;;;6.10
7389;BMP180;3735;50.136;11.062;2023-04-03T08:29:47;99291.00;;;6.30
7389;BMP180;3735;50.136;11.062;2023-04-03T08:32:13;99289.00;;;6.70
7389;BMP180;3735;50.136;11.062;2023-04-03T08:34:39;99280.00;;;6.80
7389;BMP180;3735;50.136;11.062;2023-04-03T08:37:05;99276.00;;;9.10
7389;BMP180;3735;50.136;11.062;2023-04-03T08:39:31;99262.00;;;10.80
7389;BMP180;3735;50.136;11.062;2023-04-03T08:42:02;99256.00;;;12.20
7389;BMP180;3735;50.136;11.062;2023-04-03T08:44:52;99264.00;;;13.10
7389;BMP180;3735;50.136;11.062;2023-04-03T08:47:42;99255.00;;;13.40
7389;BMP180;3735;50.136;11.062;2023-04-03T08:50:28;99251.00;;;12.90
7389;BMP180;3735;50.136;11.062;2023-04-03T08:52:59;99258.00;;;11.90
7389;BMP180;3735;50.136;11.062;2023-04-03T08:55:40;99281.00;;;10.90
7389;BMP180;3735;50.136;11.062;2023-04-03T08:58:29;99269.00;;;10.40
7389;BMP180;3735;50.136;11.062;2023-04-03T09:01:00;99254.00;;;11.40
7389;BMP180;3735;50.136;11.062;2023-04-03T09:03:32;99279.00;;;11.40
7389;BMP180;3735;50.136;11.062;2023-04-03T09:06:21;99291.00;;;9.90
7389;BMP180;3735;50.136;11.062;2023-04-03T09:21:00;99326.00;;;5.70
7389;BMP180;3735;50.136;11.062;2023-04-03T09:23:31;99335.00;;;5.50
7389;BMP180;3735;50.136;11.062;2023-04-03T09:26:05;99331.00;;;5.70
7389;BMP180;3735;50.136;11.062;2023-04-03T09:28:39;99327.00;;;5.80
7389;BMP180;3735;50.136;11.062;2023-04-03T09:31:24;99325.00;;;7.40
7389;BMP180;3735;50.136;11.062;2023-04-03T09:33:57;99316.00;;;7.80
7389;BMP180;3735;50.136;11.062;2023-04-03T09:37:02;99306.00;;;9.40
7389;BMP180;3735;50.136;11.062;2023-04-03T09:39:49;99299.00;;;10.50
7389;BMP180;3735;50.136;11.062;2023-04-03T09:42:21;99290.00;;;11.10
7389;BMP180;3735;50.136;11.062;2023-04-03T09:45:23;99282.00;;;11.70
7389;BMP180;3735;50.136;11.062;2023-04-03T09:48:13;99285.00;;;12.10
7389;BMP180;3735;50.136;11.062;2023-04-03T09:53:39;99298.00;;;12.40
7389;BMP180;3735;50.136;11.062;2023-04-03T09:59:08;99285.00;;;11.40
7389;BMP180;3735;50.136;11.062;2023-04-03T10:01:37;99280.00;;;12.30
7389;BMP180;3735;50.136;11.062;2023-04-03T10:04:16;99289.00;;;11.60
7389;BMP180;3735;50.136;11.062;2023-04-03T10:06:46;99316.00;;;10.10
7389;BMP180;3735;50.136;11.062;2023-04-03T10:09:30;99311.00;;;9.20
7389;BMP180;3735;50.136;11.062;2023-04-03T10:12:07;99313.00;;;8.10
7389;BMP180;3735;50.136;11.062;2023-04-03T10:18:04;99311.00;;;6.90
7389;BMP180;3735;50.136;11.062;2023-04-03T10:23:24;99295.00;;;7.30
7389;BMP180;3735;50.136;11.062;2023-04-03T10:26:41;99290.00;;;8.10
7389;BMP180;3735;50.136;11.062;2023-04-03T10:43:50;99297.00;;;7.80
7389;BMP180;3735;50.136;11.062;2023-04-03T10:49:31;99287.00;;;7.30
7389;BMP180;3735;50.136;11.062;2023-04-03T10:57:53;99263.00;;;11.10
7389;BMP180;3735;50.136;11.062;2023-04-03T11:00:45;99260.00;;;12.30
7389;BMP180;3735;50.136;11.062;2023-04-03T11:06:05;99259.00;;;13.40
7389;BMP180;3735;50.136;11.062;2023-04-03T11:08:45;99261.00;;;12.90
7389;BMP180;3735;50.136;11.062;2023-04-03T11:11:19;99262.00;;;12.10
7389;BMP180;3735;50.136;11.062;2023-04-03T11:14:09;99244.00;;;12.60
7389;BMP180;3735;50.136;11.062;2023-04-03T11:16:46;99261.00;;;12.10
7389;BMP180;3735;50.136;11.062;2023-04-03T11:19:36;99248.00;;;12.10
7389;BMP180;3735;50.136;11.062;2023-04-03T11:24:41;99248.00;;;13.20
7389;BMP180;3735;50.136;11.062;2023-04-03T11:27:17;99245.00;;;12.50
7389;BMP180;3735;50.136;11.062;2023-04-03T11:29:49;99238.00;;;12.60
7389;BMP180;3735;50.136;11.062;2023-04-03T11:35:06;99231.00;;;12.60
7389;BMP180;3735;50.136;11.062;2023-04-03T11:37:40;99234.00;;;13.10
7389;BMP180;3735;50.136;11.062;2023-04-03T11:43:23;99226.00;;;13.40
7389;BMP180;3735;50.136;11.062;2023-04-03T11:46:04;99218.00;;;12.80
7389;BMP180;3735;50.136;11.062;2023-04-03T11:53:42;99207.00;;;13.50
7389;BMP180;3735;50.136;11.062;2023-04-03T12:04:13;99209.00;;;12.70
7389;BMP180;3735;50.136;11.062;2023-04-03T12:06:48;99215.00;;;11.80
7389;BMP180;3735;50.136;11.062;2023-04-03T12:11:53;99211.00;;;11.40
7389;BMP180;3735;50.136;11.062;2023-04-03T12:14:24;99212.00;;;12.20
7389;BMP180;3735;50.136;11.062;2023-04-03T12:16:57;99195.00;;;12.40
7389;BMP180;3735;50.136;11.062;2023-04-03T12:19:39;99201.00;;;13.00
7389;BMP180;3735;50.136;11.062;2023-04-03T12:22:14;99199.00;;;12.90
7389;BMP180;3735;50.136;11.062;2023-04-03T12:24:48;99200.00;;;13.00
7389;BMP180;3735;50.136;11.062;2023-04-03T12:27:38;99198.00;;;14.00
7389;BMP180;3735;50.136;11.062;2023-04-03T12:30:23;99195.00;;;13.70
7389;BMP180;3735;50.136;11.062;2023-04-03T12:33:37;99189.00;;;14.30
7389;BMP180;3735;50.136;11.062;2023-04-03T12:36:15;99193.00;;;14.50
7389;BMP180;3735;50.136;11.062;2023-04-03T12:39:41;99183.00;;;14.10
7389;BMP180;3735;50.136;11.062;2023-04-03T12:47:27;99178.00;;;13.60
7389;BMP180;3735;50.136;11.062;2023-04-03T12:49:55;99175.00;;;13.60
7389;BMP180;3735;50.136;11.062;2023-04-03T12:52:38;99176.00;;;14.40
7389;BMP180;3735;50.136;11.062;2023-04-03T12:55:16;99165.00;;;14.70
7389;BMP180;3735;50.136;11.062;2023-04-03T12:57:42;99173.00;;;12.80
7389;BMP180;3735;50.136;11.062;2023-04-03T13:00:35;99171.00;;;13.30
7389;BMP180;3735;50.136;11.062;2023-04-03T13:03:03;99176.00;;;12.00
7389;BMP180;3735;50.136;11.062;2023-04-03T13:05:32;99169.00;;;11.70
7389;BMP180;3735;50.136;11.062;2023-04-03T13:08:07;99174.00;;;11.60
7389;BMP180;3735;50.136;11.062;2023-04-03T13:10:59;99168.00;;;11.80
7389;BMP180;3735;50.136;11.062;2023-04-03T13:13:27;99164.00;;;11.30
7389;BMP180;3735;50.136;11.062;2023-04-03T13:15:54;99169.00;;;12.20
7389;BMP180;3735;50.136;11.062;2023-04-03T13:18:30;99174.00;;;12.00
7389;BMP180;3735;50.136;11.062;2023-04-03T13:21:06;99175.00;;;12.30
7389;BMP180;3735;50.136;11.062;2023-04-03T13:23:36;99165.00;;;12.60
7389;BMP180;3735;50.136;11.062;2023-04-03T13:26:05;99159.00;;;13.10
7389;BMP180;3735;50.136;11.062;2023-04-03T13:28:33;99168.00;;;13.20
7389;BMP180;3735;50.136;11.062;2023-04-03T13:33:52;99158.00;;;13.10
7389;BMP180;3735;50.136;11.062;2023-04-03T13:36:31;99150.00;;;12.60
7389;BMP180;3735;50.136;11.062;2023-04-03T13:42:17;99160.00;;;13.60
7389;BMP180;3735;50.136;11.062;2023-04-03T13:44:47;99151.00;;;12.30
7389;BMP180;3735;50.136;11.062;2023-04-03T13:47:20;99164.00;;;12.50
7389;BMP180;3735;50.136;11.062;2023-04-03T13:50:16;99164.00;;;13.10
7389;BMP180;3735;50.136;11.062;2023-04-03T13:53:34;99152.00;;;13.90
7389;BMP180;3735;50.136;11.062;2023-04-03T13:55:37;99151.00;;;13.60
7389;BMP180;3735;50.136;11.062;2023-04-03T13:58:26;99154.00;;;12.30
7389;BMP180;3735;50.136;11.062;2023-04-03T14:01:19;99154.00;;;12.40
7389;BMP180;3735;50.136;11.062;2023-04-03T14:06:18;99163.00;;;12.10
7389;BMP180;3735;50.136;11.062;2023-04-03T14:08:45;99156.00;;;13.60
7389;BMP180;3735;50.136;11.062;2023-04-03T14:11:26;99160.00;;;13.20
7389;BMP180;3735;50.136;11.062;2023-04-03T14:13:55;99156.00;;;13.40
7389;BMP180;3735;50.136;11.062;2023-04-03T14:16:29;99166.00;;;12.20
7389;BMP180;3735;50.136;11.062;2023-04-03T14:18:56;99168.00;;;12.00
7389;BMP180;3735;50.136;11.062;2023-04-03T14:21:22;99169.00;;;11.90
7389;BMP180;3735;50.136;11.062;2023-04-03T14:23:49;99161.00;;;12.00
7389;BMP180;3735;50.136;11.062;2023-04-03T14:26:23;99147.00;;;12.10
7389;BMP180;3735;50.136;11.062;2023-04-03T14:28:54;99158.00;;;11.00
7389;BMP180;3735;50.136;11.062;2023-04-03T14:31:21;99165.00;;;10.00
7389;BMP180;3735;50.136;11.062;2023-04-03T14:33:47;99158.00;;;10.50
7389;BMP180;3735;50.136;11.062;2023-04-03T14:36:15;99163.00;;;11.00
7389;BMP180;3735;50.136;11.062;2023-04-03T14:38:43;99159.00;;;12.10
7389;BMP180;3735;50.136;11.062;2023-04-03T14:41:13;99166.00;;;12.70
7389;BMP180;3735;50.136;11.062;2023-04-03T14:43:40;99157.00;;;12.80
7389;BMP180;3735;50.136;11.062;2023-04-03T14:46:25;99163.00;;;11.90
7389;BMP180;3735;50.136;11.062;2023-04-03T14:48:52;99163.00;;;11.80
7389;BMP180;3735;50.136;11.062;2023-04-03T14:51:18;99164.00;;;11.60
7389;BMP180;3735;50.136;11.062;2023-04-03T14:53:44;99165.00;;;10.00
7389;BMP180;3735;50.136;11.062;2023-04-03T14:56:25;99171.00;;;9.40
7389;BMP180;3735;50.136;11.062;2023-04-03T14:58:58;99168.00;;;9.10
7389;BMP180;3735;50.136;11.062;2023-04-03T15:01:26;99161.00;;;10.10
7389;BMP180;3735;50.136;11.062;2023-04-03T15:03:52;99153.00;;;11.60
7389;BMP180;3735;50.136;11.062;2023-04-03T15:06:18;99144.00;;;11.60
7389;BMP180;3735;50.136;11.062;2023-04-03T15:08:47;99171.00;;;10.40
7389;BMP180;3735;50.136;11.062;2023-04-03T15:11:14;99166.00;;;9.10
7389;BMP180;3735;50.136;11.062;2023-04-03T15:13:40;99168.00;;;9.00
7389;BMP180;3735;50.136;11.062;2023-04-03T15:16:16;99168.00;;;9.70
7389;BMP180;3735;50.136;11.062;2023-04-03T15:18:43;99156.00;;;9.70
7389;BMP180;3735;50.136;11.062;2023-04-03T15:21:10;99158.00;;;10.60
7389;BMP180;3735;50.136;11.062;2023-04-03T15:23:36;99147.00;;;10.60
7389;BMP180;3735;50.136;11.062;2023-04-03T15:26:03;99163.00;;;11.30
7389;BMP180;3735;50.136;11.062;2023-04-03T15:28:41;99163.00;;;10.70
7389;BMP180;3735;50.136;11.062;2023-04-03T15:31:08;99149.00;;;11.00
7389;BMP180;3735;50.136;11.062;2023-04-03T15:33:35;99163.00;;;10.60
7389;BMP180;3735;50.136;11.062;2023-04-03T15:36:03;99173.00;;;9.40
7389;BMP180;3735;50.136;11.062;2023-04-03T15:38:28;99175.00;;;8.70
7389;BMP180;3735;50.136;11.062;2023-04-03T15:40:55;99174.00;;;8.10
7389;BMP180;3735;50.136;11.062;2023-04-03T15:43:21;99182.00;;;7.50
7389;BMP180;3735;50.136;11.062;2023-04-03T15:45:51;99174.00;;;6.80
7389;BMP180;3735;50.136;11.062;2023-04-03T15:48:17;99182.00;;;7.10
7389;BMP180;3735;50.136;11.062;2023-04-03T15:50:43;99190.00;;;7.10
7389;BMP180;3735;50.136;11.062;2023-04-03T15:53:10;99186.00;;;6.90
7389;BMP180;3735;50.136;11.062;2023-04-03T15:55:37;99183.00;;;7.30
7389;BMP180;3735;50.136;11.062;2023-04-03T15:58:04;99190.00;;;7.00
7389;BMP180;3735;50.136;11.062;2023-04-03T16:00:31;99190.00;;;6.60
7389;BMP180;3735;50.136;11.062;2023-04-03T16:03:07;99171.00;;;6.20
7389;BMP180;3735;50.136;11.062;2023-04-03T16:05:37;99194.00;;;5.80
7389;BMP180;3735;50.136;11.062;2023-04-03T16:08:05;99177.00;;;5.50
7389;BMP180;3735;50.136;11.062;2023-04-03T16:10:32;99188.00;;;5.60
7389;BMP180;3735;50.136;11.062;2023-04-03T16:12:57;99179.00;;;6.50
7389;BMP180;3735;50.136;11.062;2023-04-03T16:15:24;99176.00;;;7.70
7389;BMP180;3735;50.136;11.062;2023-04-03T16:17:53;99157.00;;;8.90
7389;BMP180;3735;50.136;11.062;2023-04-03T16:20:19;99190.00;;;8.70
7389;BMP180;3735;50.136;11.062;2023-04-03T16:22:48;99192.00;;;7.80
7389;BMP180;3735;50.136;11.062;2023-04-03T16:25:15;99184.00;;;6.90
7389;BMP180;3735;50.136;11.062;2023-04-03T16:27:40;99194.00;;;6.30